createdAt,value
2023-02-18T00:00:33.481Z,2.35
2023-02-18T00:03:01.032Z,2.15
2023-02-18T00:05:29.536Z,2.50
2023-02-18T00:07:57.264Z,2.15
2023-02-18T00:10:24.858Z,2.45
2023-02-18T00:12:52.426Z,2.40
2023-02-18T00:15:20.059Z,2.42
2023-02-18T00:17:47.651Z,2.40
2023-02-18T00:20:15.316Z,2.60
2023-02-18T00:22:42.861Z,2.30
2023-02-18T00:25:10.404Z,2.75
2023-02-18T00:27:37.976Z,2.80
2023-02-18T00:30:05.955Z,2.20
2023-02-18T00:32:35.332Z,2.38
2023-02-18T00:35:02.956Z,2.40
2023-02-18T00:37:30.676Z,2.20
2023-02-18T00:39:58.213Z,2.00
2023-02-18T00:42:25.753Z,2.20
2023-02-18T00:44:54.348Z,2.10
2023-02-18T00:47:22.447Z,2.33
2023-02-18T00:49:50.008Z,2.10
2023-02-18T00:52:17.533Z,2.00
2023-02-18T00:54:46.072Z,1.80
2023-02-18T00:57:13.732Z,2.25
2023-02-18T00:59:41.275Z,2.80
2023-02-18T01:02:08.860Z,2.00
2023-02-18T01:04:36.427Z,2.15
2023-02-18T01:07:04.037Z,1.85
2023-02-18T01:09:31.652Z,2.20
2023-02-18T01:11:59.221Z,2.03
2023-02-18T01:14:26.790Z,1.75
2023-02-18T01:16:54.343Z,1.77
2023-02-18T01:19:21.956Z,2.17
2023-02-18T01:21:49.582Z,2.00
2023-02-18T01:24:17.152Z,2.03
2023-02-18T01:26:44.698Z,1.58
2023-02-18T01:29:12.272Z,1.83
2023-02-18T01:31:41.395Z,1.63
2023-02-18T01:34:09.250Z,2.08
2023-02-18T01:36:36.790Z,1.80
2023-02-18T01:39:05.655Z,1.92
2023-02-18T01:41:33.479Z,2.00
2023-02-18T01:44:20.773Z,1.85
2023-02-18T01:46:49.095Z,1.70
2023-02-18T01:49:20.523Z,1.80
2023-02-18T01:51:50.852Z,2.30
2023-02-18T01:54:18.356Z,2.00
2023-02-18T01:56:57.663Z,1.83
2023-02-18T01:59:27.077Z,1.85
2023-02-18T02:01:55.022Z,2.17
2023-02-18T02:04:22.698Z,2.60
2023-02-18T02:06:50.267Z,2.22
2023-02-18T02:09:19.676Z,2.55
2023-02-18T02:12:03.502Z,2.55
2023-02-18T02:14:34.197Z,2.50
2023-02-18T02:17:20.573Z,3.10
2023-02-18T02:20:00.430Z,2.58
2023-02-18T02:22:40.296Z,2.60
2023-02-18T02:25:16.919Z,2.38
2023-02-18T02:27:56.442Z,2.40
2023-02-18T02:30:27.110Z,2.40
2023-02-18T02:33:09.982Z,2.30
2023-02-18T02:35:39.345Z,2.40
2023-02-18T02:38:27.269Z,2.40
2023-02-18T02:40:54.819Z,2.22
2023-02-18T02:43:34.368Z,2.38
2023-02-18T02:46:17.214Z,2.10
2023-02-18T02:48:49.926Z,2.05
2023-02-18T02:51:25.118Z,2.13
2023-02-18T02:53:52.799Z,1.90
2023-02-18T02:56:22.075Z,1.98
2023-02-18T03:01:32.556Z,1.85
2023-02-18T03:04:08.692Z,1.58
2023-02-18T03:06:36.288Z,1.92
2023-02-18T03:09:22.396Z,1.80
2023-02-18T03:11:56.909Z,1.70
2023-02-18T03:14:35.527Z,1.80
2023-02-18T03:17:07.011Z,1.50
2023-02-18T03:19:40.689Z,1.52
2023-02-18T03:22:14.120Z,1.58
2023-02-18T03:24:43.161Z,1.60
2023-02-18T03:27:14.550Z,1.60
2023-02-18T03:29:44.168Z,1.30
2023-02-18T03:32:13.725Z,1.50
2023-02-18T03:34:48.586Z,1.20
2023-02-18T03:37:16.598Z,1.50
2023-02-18T03:39:46.688Z,1.60
2023-02-18T03:42:14.908Z,1.30
2023-02-18T03:44:42.481Z,1.60
2023-02-18T03:47:10.031Z,1.40
2023-02-18T03:49:37.567Z,1.30
2023-02-18T03:52:05.292Z,1.20
2023-02-18T03:54:32.880Z,1.23
2023-02-18T03:57:01.421Z,1.50
2023-02-18T03:59:28.939Z,1.25
2023-02-18T04:01:56.473Z,1.20
2023-02-18T04:04:24.039Z,1.25
2023-02-18T04:06:51.607Z,1.52
2023-02-18T04:09:19.191Z,1.40
2023-02-18T04:11:46.751Z,1.30
2023-02-18T04:14:14.889Z,1.58
2023-02-18T04:16:42.838Z,1.60
2023-02-18T04:19:10.487Z,1.60
2023-02-18T04:21:38.041Z,1.80
2023-02-18T04:24:05.679Z,1.48
2023-02-18T04:26:33.298Z,1.60
2023-02-18T04:29:00.835Z,1.40
2023-02-18T04:31:28.524Z,1.50
2023-02-18T04:33:56.159Z,1.67
2023-02-18T04:36:23.752Z,1.80
2023-02-18T04:38:51.301Z,1.50
2023-02-18T04:41:18.908Z,1.55
2023-02-18T04:43:46.544Z,1.65
2023-02-18T04:46:14.154Z,1.58
2023-02-18T04:48:41.867Z,1.48
2023-02-18T04:51:09.442Z,1.60
2023-02-18T04:53:37.006Z,1.67
2023-02-18T04:56:04.700Z,1.70
2023-02-18T04:58:32.237Z,1.70
2023-02-18T05:01:00.993Z,1.42
2023-02-18T05:03:29.090Z,1.52
2023-02-18T05:05:56.643Z,1.67
2023-02-18T05:08:24.314Z,1.45
2023-02-18T05:10:51.888Z,1.33
2023-02-18T05:13:19.572Z,1.35
2023-02-18T05:15:47.112Z,1.45
2023-02-18T05:18:14.833Z,1.10
2023-02-18T05:20:42.358Z,1.40
2023-02-18T05:23:09.887Z,1.05
2023-02-18T05:25:37.403Z,1.17
2023-02-18T05:28:05.052Z,1.17
2023-02-18T05:30:32.722Z,1.13
2023-02-18T05:33:00.285Z,1.13
2023-02-18T05:35:27.814Z,1.45
2023-02-18T05:37:55.350Z,0.90
2023-02-18T05:40:22.870Z,1.15
2023-02-18T05:42:50.422Z,0.93
2023-02-18T05:45:17.981Z,0.90
2023-02-18T05:47:45.557Z,1.00
2023-02-18T05:50:13.130Z,1.00
2023-02-18T05:52:40.756Z,1.25
2023-02-18T05:55:08.425Z,0.85
2023-02-18T05:57:35.986Z,0.90
2023-02-18T06:00:04.541Z,0.90
2023-02-18T06:02:32.345Z,0.75
2023-02-18T06:04:59.945Z,0.60
2023-02-18T06:07:27.544Z,0.52
2023-02-18T06:09:55.125Z,0.82
2023-02-18T06:12:22.663Z,0.70
2023-02-18T06:14:50.220Z,0.73
2023-02-18T06:17:18.668Z,0.82
2023-02-18T06:19:46.540Z,0.80
2023-02-18T06:22:14.074Z,0.80
2023-02-18T06:24:41.846Z,0.70
2023-02-18T06:27:09.379Z,0.52
2023-02-18T06:29:36.979Z,0.68
2023-02-18T06:32:04.680Z,0.77
2023-02-18T06:34:32.280Z,0.70
2023-02-18T06:37:01.315Z,0.70
2023-02-18T06:39:29.500Z,0.55
2023-02-18T06:41:57.100Z,1.17
2023-02-18T06:44:24.643Z,0.65
2023-02-18T06:46:52.229Z,0.60
2023-02-18T06:49:19.805Z,0.60
2023-02-18T06:51:47.345Z,0.50
2023-02-18T06:54:14.937Z,0.50
2023-02-18T06:56:42.777Z,0.60
2023-02-18T06:59:10.315Z,0.45
2023-02-18T07:01:37.861Z,0.50
2023-02-18T07:04:05.546Z,0.55
2023-02-18T07:06:33.210Z,0.60
2023-02-18T07:09:00.946Z,0.40
2023-02-18T07:11:28.536Z,0.60
2023-02-18T07:13:56.086Z,0.47
2023-02-18T07:16:23.705Z,0.40
2023-02-18T07:18:51.235Z,0.50
2023-02-18T07:21:18.830Z,0.40
2023-02-18T07:23:46.354Z,0.50
2023-02-18T07:26:15.375Z,0.47
2023-02-18T07:28:43.305Z,0.50
2023-02-18T07:31:11.104Z,0.50
2023-02-18T07:33:38.685Z,0.40
2023-02-18T07:36:06.888Z,0.60
2023-02-18T07:38:34.796Z,0.40
2023-02-18T07:41:02.351Z,0.40
2023-02-18T07:43:29.932Z,0.45
2023-02-18T07:45:57.539Z,0.50
2023-02-18T07:48:25.094Z,0.50
2023-02-18T07:50:52.626Z,0.60
2023-02-18T07:53:20.161Z,0.57
2023-02-18T07:55:50.890Z,0.32
2023-02-18T07:58:21.437Z,0.20
2023-02-18T08:00:49.493Z,0.50
2023-02-18T08:03:18.070Z,0.60
2023-02-18T08:05:45.741Z,0.50
2023-02-18T08:08:14.204Z,0.60
2023-02-18T08:10:41.818Z,0.50
2023-02-18T08:13:09.444Z,0.60
2023-02-18T08:15:36.976Z,0.40
2023-02-18T08:18:04.797Z,0.50
2023-02-18T08:20:32.402Z,0.50
2023-02-18T08:23:03.065Z,0.60
2023-02-18T08:25:30.677Z,0.50
2023-02-18T08:27:58.344Z,0.60
2023-02-18T08:30:26.324Z,0.55
2023-02-18T08:32:53.984Z,0.40
2023-02-18T08:35:21.741Z,0.65
2023-02-18T08:37:52.265Z,0.50
2023-02-18T08:40:21.504Z,0.60
2023-02-18T08:42:49.035Z,0.47
2023-02-18T08:45:16.577Z,0.75
2023-02-18T08:48:16.783Z,0.50
2023-02-18T08:50:31.807Z,0.52
2023-02-18T08:53:03.340Z,0.60
2023-02-18T08:55:31.508Z,0.85
2023-02-18T08:58:00.291Z,0.50
2023-02-18T09:00:28.084Z,0.50
2023-02-18T09:02:55.692Z,0.65
2023-02-18T09:05:23.225Z,0.60
2023-02-18T09:07:50.767Z,0.50
2023-02-18T09:10:18.374Z,0.77
2023-02-18T09:12:45.952Z,0.60
2023-02-18T09:15:13.496Z,0.60
2023-02-18T09:17:41.160Z,0.73
2023-02-18T09:20:08.981Z,0.73
2023-02-18T09:22:36.573Z,0.63
2023-02-18T09:25:04.377Z,0.73
2023-02-18T09:27:31.933Z,0.60
2023-02-18T09:29:59.526Z,0.52
2023-02-18T09:32:35.446Z,0.80
2023-02-18T09:35:04.138Z,0.65
2023-02-18T09:37:31.716Z,0.80
2023-02-18T09:39:59.985Z,0.73
2023-02-18T09:42:32.931Z,0.70
2023-02-18T09:45:06.235Z,0.80
2023-02-18T09:47:36.601Z,0.70
2023-02-18T09:50:17.430Z,0.85
2023-02-18T09:52:45.369Z,0.60
2023-02-18T09:55:15.666Z,0.63
2023-02-18T09:57:47.383Z,0.60
2023-02-18T10:00:20.802Z,0.80
2023-02-18T10:02:56.318Z,0.65
2023-02-18T10:05:24.463Z,0.82
2023-02-18T10:07:53.321Z,0.60
2023-02-18T10:10:23.156Z,0.60
2023-02-18T10:12:51.439Z,0.60
2023-02-18T10:15:22.180Z,0.70
2023-02-18T10:17:50.774Z,0.73
2023-02-18T10:20:20.843Z,0.98
2023-02-18T10:22:48.371Z,0.70
2023-02-18T10:25:21.455Z,0.80
2023-02-18T10:27:49.927Z,0.60
2023-02-18T10:30:29.560Z,0.70
2023-02-18T10:33:01.909Z,0.90
2023-02-18T10:35:37.422Z,0.60
2023-02-18T10:38:11.174Z,0.73
2023-02-18T10:40:41.620Z,0.70
2023-02-18T10:43:14.860Z,0.70
2023-02-18T10:46:00.476Z,0.70
2023-02-18T10:48:43.676Z,0.80
2023-02-18T10:51:26.666Z,0.60
2023-02-18T10:53:54.979Z,0.90
2023-02-18T10:56:42.836Z,0.80
2023-02-18T10:59:10.734Z,0.90
2023-02-18T11:01:38.643Z,0.80
2023-02-18T11:04:08.631Z,0.70
2023-02-18T11:06:40.584Z,0.77
2023-02-18T11:09:09.615Z,0.60
2023-02-18T11:11:40.567Z,0.80
2023-02-18T11:14:09.424Z,0.80
2023-02-18T11:16:41.426Z,0.80
2023-02-18T11:19:27.929Z,1.05
2023-02-18T11:22:06.992Z,0.85
2023-02-18T11:24:38.980Z,0.90
2023-02-18T11:27:14.607Z,0.63
2023-02-18T11:29:42.391Z,0.30
2023-02-18T11:32:12.040Z,0.50
2023-02-18T11:34:43.063Z,0.60
2023-02-18T11:37:12.639Z,0.68
2023-02-18T11:39:44.592Z,0.60
2023-02-18T11:42:14.498Z,0.60
2023-02-18T11:44:43.665Z,0.50
2023-02-18T11:47:13.937Z,0.70
2023-02-18T11:49:43.219Z,0.75
2023-02-18T11:52:18.677Z,0.63
2023-02-18T11:55:04.853Z,0.50
2023-02-18T11:57:34.605Z,0.50
2023-02-18T12:00:02.448Z,0.52
2023-02-18T12:02:38.075Z,0.47
2023-02-18T12:05:12.403Z,0.60
2023-02-18T12:07:51.015Z,0.50
2023-02-18T12:10:18.596Z,0.43
2023-02-18T12:12:52.381Z,0.68
2023-02-18T12:15:25.060Z,0.77
2023-02-18T12:18:01.774Z,0.55
2023-02-18T12:20:29.317Z,0.80
2023-02-18T12:23:07.938Z,0.60
2023-02-18T12:25:36.371Z,0.98
2023-02-18T12:28:19.720Z,0.70
2023-02-18T12:30:47.245Z,0.60
2023-02-18T12:33:26.421Z,0.57
2023-02-18T12:36:02.095Z,0.50
2023-02-18T12:38:59.053Z,0.68
2023-02-18T12:41:38.650Z,0.70
2023-02-18T12:44:06.188Z,0.40
2023-02-18T12:46:41.756Z,0.57
2023-02-18T12:49:24.994Z,0.50
2023-02-18T12:51:55.723Z,0.55
2023-02-18T12:54:26.113Z,0.55
2023-02-18T12:57:05.803Z,0.50
2023-02-18T12:59:51.895Z,0.52
2023-02-18T13:02:31.778Z,0.60
2023-02-18T13:05:12.103Z,0.40
2023-02-18T13:07:51.658Z,0.77
2023-02-18T13:10:38.057Z,0.60
2023-02-18T13:13:26.436Z,0.43
2023-02-18T13:16:17.290Z,0.75
2023-02-18T13:19:05.224Z,0.60
2023-02-18T13:21:32.766Z,0.60
2023-02-18T13:24:05.536Z,0.90
2023-02-18T13:26:33.840Z,0.60
2023-02-18T13:29:04.253Z,0.68
2023-02-18T13:31:40.968Z,0.50
2023-02-18T13:34:17.184Z,0.70
2023-02-18T13:36:54.379Z,0.73
2023-02-18T13:39:23.508Z,0.60
2023-02-18T13:41:52.752Z,0.57
2023-02-18T13:44:23.357Z,0.80
2023-02-18T13:46:52.151Z,0.55
2023-02-18T13:49:22.673Z,0.90
2023-02-18T13:51:54.949Z,0.55
2023-02-18T13:54:45.851Z,0.65
2023-02-18T13:57:13.537Z,0.60
2023-02-18T13:59:43.511Z,0.80
2023-02-18T14:02:20.804Z,0.70
2023-02-18T14:04:52.812Z,0.70
2023-02-18T14:07:35.813Z,0.68
2023-02-18T14:10:06.100Z,0.52
2023-02-18T14:12:37.571Z,0.73
2023-02-18T14:15:20.466Z,0.73
2023-02-18T14:18:06.615Z,0.60
2023-02-18T14:20:34.340Z,0.70
2023-02-18T14:23:02.136Z,0.80
2023-02-18T14:25:42.753Z,0.60
2023-02-18T14:28:29.173Z,0.70
2023-02-18T14:30:56.871Z,0.55
2023-02-18T14:33:25.658Z,0.80
2023-02-18T14:36:06.281Z,0.77
2023-02-18T14:38:46.295Z,0.85
2023-02-18T14:41:16.926Z,0.77
2023-02-18T14:44:03.586Z,0.55
2023-02-18T14:46:43.273Z,0.70
2023-02-18T14:49:23.028Z,0.73
2023-02-18T14:51:52.334Z,0.75
2023-02-18T14:54:21.703Z,0.82
2023-02-18T14:56:53.321Z,0.80
2023-02-18T14:59:21.355Z,1.02
2023-02-18T15:01:48.958Z,0.73
2023-02-18T15:04:16.677Z,0.90
2023-02-18T15:06:45.388Z,0.88
2023-02-18T15:09:15.395Z,0.68
2023-02-18T15:11:48.391Z,1.10
2023-02-18T15:14:29.822Z,0.70
2023-02-18T15:16:58.137Z,0.68
2023-02-18T15:19:27.094Z,0.60
2023-02-18T15:21:56.001Z,0.80
2023-02-18T15:24:33.790Z,0.70
2023-02-18T15:27:15.746Z,0.77
2023-02-18T15:29:43.388Z,0.80
2023-02-18T15:32:18.888Z,0.63
2023-02-18T15:34:47.182Z,0.90
2023-02-18T15:37:15.396Z,0.70
2023-02-18T15:39:43.750Z,0.50
2023-02-18T15:42:14.377Z,0.80
2023-02-18T15:44:46.650Z,0.75
2023-02-18T15:47:14.740Z,0.75
2023-02-18T15:49:46.427Z,0.50
2023-02-18T15:52:14.242Z,0.63
2023-02-18T15:54:43.456Z,0.52
2023-02-18T15:57:14.490Z,0.70
2023-02-18T15:59:46.991Z,0.57
2023-02-18T16:02:19.835Z,0.60
2023-02-18T16:04:53.259Z,0.68
2023-02-18T16:07:38.424Z,0.80
2023-02-18T16:10:24.852Z,0.80
2023-02-18T16:13:00.182Z,0.55
2023-02-18T16:15:32.315Z,0.70
2023-02-18T16:18:00.328Z,0.60
2023-02-18T16:20:32.523Z,0.70
2023-02-18T16:23:02.978Z,0.80
2023-02-18T16:25:39.631Z,0.85
2023-02-18T16:28:12.713Z,0.80
2023-02-18T16:30:45.249Z,0.63
2023-02-18T16:33:13.080Z,0.60
2023-02-18T16:35:49.543Z,0.70
2023-02-18T16:38:20.074Z,0.70
2023-02-18T16:40:47.988Z,1.25
2023-02-18T16:43:17.166Z,0.70
2023-02-18T16:45:48.437Z,0.75
2023-02-18T16:48:32.604Z,0.70
2023-02-18T16:51:01.234Z,0.68
2023-02-18T16:53:28.837Z,0.77
2023-02-18T16:55:56.609Z,0.77
2023-02-18T16:58:24.238Z,1.05
2023-02-18T17:00:52.751Z,1.05
2023-02-18T17:03:20.953Z,0.85
2023-02-18T17:05:48.595Z,0.80
2023-02-18T17:08:22.830Z,0.70
2023-02-18T17:10:54.689Z,0.98
2023-02-18T17:15:51.404Z,0.70
2023-02-18T17:18:19.211Z,0.75
2023-02-18T17:20:48.349Z,0.90
2023-02-18T17:23:16.706Z,0.60
2023-02-18T17:25:45.362Z,0.90
2023-02-18T17:28:13.045Z,0.75
2023-02-18T17:30:41.639Z,0.88
2023-02-18T17:33:12.652Z,0.68
2023-02-18T17:35:40.192Z,0.90
2023-02-18T17:38:14.473Z,0.90
2023-02-18T17:40:42.299Z,0.98
2023-02-18T17:43:12.822Z,0.70
2023-02-18T17:45:42.804Z,0.63
2023-02-18T17:48:10.698Z,0.85
2023-02-18T17:50:38.242Z,0.70
2023-02-18T17:53:05.820Z,1.08
2023-02-18T17:55:34.833Z,1.00
2023-02-18T17:58:02.436Z,1.10
2023-02-18T18:00:31.578Z,0.80
2023-02-18T18:02:59.613Z,0.65
2023-02-18T18:05:27.172Z,0.73
2023-02-18T18:07:55.238Z,0.90
2023-02-18T18:10:31.941Z,0.80
2023-02-18T18:13:00.648Z,0.80
2023-02-18T18:15:30.095Z,0.70
2023-02-18T18:17:58.415Z,1.20
2023-02-18T18:20:27.019Z,0.88
2023-02-18T18:22:55.405Z,0.90
2023-02-18T18:25:23.016Z,0.80
2023-02-18T18:27:52.300Z,0.90
2023-02-18T18:30:27.050Z,0.75
2023-02-18T18:32:55.024Z,0.90
2023-02-18T18:35:33.179Z,0.95
2023-02-18T18:38:01.024Z,0.90
2023-02-18T18:40:30.078Z,0.80
2023-02-18T18:42:58.685Z,0.80
2023-02-18T18:45:28.449Z,1.00
2023-02-18T18:47:56.039Z,1.00
2023-02-18T18:50:24.859Z,1.10
2023-02-18T18:52:53.167Z,0.90
2023-02-18T18:55:23.497Z,1.00
2023-02-18T18:57:51.423Z,0.93
2023-02-18T19:00:20.468Z,1.15
2023-02-18T19:02:48.026Z,0.90
2023-02-18T19:05:23.765Z,1.15
2023-02-18T19:07:51.382Z,1.05
2023-02-18T19:10:19.369Z,1.20
2023-02-18T19:12:47.397Z,1.50
2023-02-18T19:15:16.274Z,0.93
2023-02-18T19:17:47.786Z,0.80
2023-02-18T19:20:16.361Z,0.90
2023-02-18T19:22:44.013Z,1.00
2023-02-18T19:25:12.650Z,1.00
2023-02-18T19:27:41.234Z,1.08
2023-02-18T19:30:09.375Z,1.00
2023-02-18T19:32:37.034Z,1.02
2023-02-18T19:35:04.724Z,1.00
2023-02-18T19:37:33.160Z,1.23
2023-02-18T19:40:00.798Z,1.25
2023-02-18T19:42:28.401Z,2.38
2023-02-18T19:44:55.998Z,1.10
2023-02-18T19:47:25.385Z,1.10
2023-02-18T19:49:53.462Z,1.10
2023-02-18T19:52:21.866Z,1.20
2023-02-18T19:54:49.399Z,1.13
2023-02-18T19:57:16.991Z,1.00
2023-02-18T19:59:44.835Z,1.05
2023-02-18T20:02:14.009Z,1.60
2023-02-18T20:04:41.653Z,1.90
2023-02-18T20:07:09.642Z,1.20
2023-02-18T20:09:37.626Z,1.17
2023-02-18T20:12:05.625Z,1.20
2023-02-18T20:14:33.666Z,1.10
2023-02-18T20:17:01.223Z,1.13
2023-02-18T20:19:31.720Z,1.35
2023-02-18T20:22:00.616Z,1.83
2023-02-18T20:24:29.590Z,1.23
2023-02-18T20:26:58.070Z,1.25
2023-02-18T20:29:26.070Z,1.70
2023-02-18T20:31:54.384Z,1.10
2023-02-18T20:34:22.175Z,1.02
2023-02-18T20:36:50.081Z,1.30
2023-02-18T20:39:18.171Z,1.20
2023-02-18T20:41:46.481Z,1.20
2023-02-18T20:44:15.671Z,0.80
2023-02-18T20:46:43.843Z,1.08
2023-02-18T20:49:13.711Z,6.40
2023-02-18T20:51:41.421Z,1.50
2023-02-18T20:54:10.271Z,2.63
2023-02-18T20:56:38.393Z,1.10
2023-02-18T20:59:06.345Z,1.05
2023-02-18T21:01:34.099Z,1.30
2023-02-18T21:04:01.736Z,0.98
2023-02-18T21:06:29.347Z,1.20
2023-02-18T21:08:57.388Z,1.15
2023-02-18T21:11:26.802Z,1.30
2023-02-18T21:13:55.452Z,1.30
2023-02-18T21:16:23.950Z,1.02
2023-02-18T21:18:52.525Z,1.13
2023-02-18T21:21:20.385Z,1.00
2023-02-18T21:23:48.108Z,1.10
2023-02-18T21:26:21.943Z,3.33
2023-02-18T21:28:50.505Z,0.98
2023-02-18T21:31:22.899Z,2.60
2023-02-18T21:33:50.756Z,1.10
2023-02-18T21:36:18.839Z,1.00
2023-02-18T21:38:51.764Z,1.10
2023-02-18T21:41:19.518Z,0.88
2023-02-18T21:43:47.326Z,1.17
2023-02-18T21:46:16.729Z,1.23
2023-02-18T21:49:02.866Z,0.98
2023-02-18T21:51:50.119Z,1.00
2023-02-18T21:54:18.547Z,0.93
2023-02-18T21:56:46.118Z,1.17
2023-02-18T21:59:13.695Z,1.02
2023-02-18T22:01:41.433Z,1.10
2023-02-18T22:04:09.079Z,1.08
2023-02-18T22:06:36.748Z,1.05
2023-02-18T22:09:05.048Z,1.20
2023-02-18T22:11:33.015Z,1.30
2023-02-18T22:14:00.690Z,1.20
2023-02-18T22:16:28.954Z,1.73
2023-02-18T22:18:57.295Z,1.10
2023-02-18T22:21:25.070Z,1.20
2023-02-18T22:23:52.669Z,1.10
2023-02-18T22:26:20.447Z,1.23
2023-02-18T22:28:54.462Z,1.27
2023-02-18T22:31:22.996Z,1.05
2023-02-18T22:33:52.052Z,1.20
2023-02-18T22:36:21.968Z,1.15
2023-02-18T22:38:49.792Z,1.33
2023-02-18T22:41:18.558Z,1.52
2023-02-18T22:43:46.354Z,1.10
2023-02-18T22:46:15.444Z,1.10
2023-02-18T22:48:43.276Z,1.30
2023-02-18T22:51:15.240Z,1.17
2023-02-18T22:53:43.467Z,1.17
2023-02-18T22:56:12.757Z,1.27
2023-02-18T22:58:40.970Z,1.40
2023-02-18T23:01:09.485Z,1.20
2023-02-18T23:03:37.300Z,1.10
2023-02-18T23:06:05.922Z,1.30
2023-02-18T23:08:33.962Z,1.17
2023-02-18T23:11:08.839Z,1.38
2023-02-18T23:13:36.606Z,1.58
2023-02-18T23:16:05.686Z,1.00
2023-02-18T23:18:34.160Z,1.30
2023-02-18T23:21:18.331Z,1.50
2023-02-18T23:23:46.463Z,1.40
2023-02-18T23:26:14.468Z,1.10
2023-02-18T23:28:48.635Z,1.17
2023-02-18T23:31:16.339Z,1.10
2023-02-18T23:33:44.131Z,1.10
2023-02-18T23:36:15.947Z,1.25
2023-02-18T23:38:43.488Z,1.20
2023-02-18T23:41:11.306Z,1.48
2023-02-18T23:43:39.031Z,1.50
2023-02-18T23:46:06.836Z,1.40
2023-02-18T23:48:38.477Z,1.45
2023-02-18T23:51:07.582Z,1.52
2023-02-18T23:53:36.282Z,1.20
2023-02-18T23:56:14.393Z,1.30
2023-02-18T23:58:42.745Z,1.25
